sensor_id;sensor_type;location;lat;lon;timestamp;pressure;altitude;pressure_sealevel;temperature;humidity
13068;BME280;6600;51.362;6.686;2023-05-12T00:00:17;101000.53;;;14.18;100.00
13068;BME280;6600;51.362;6.686;2023-05-12T00:02:42;100996.81;;;14.19;100.00
13068;BME280;6600;51.362;6.686;2023-05-12T00:05:08;100991.88;;;14.16;100.00
13068;BME280;6600;51.362;6.686;2023-05-12T00:07:34;100991.28;;;14.14;100.00
13068;BME280;6600;51.362;6.686;2023-05-12T00:09:59;100985.88;;;14.14;100.00
13068;BME280;6600;51.362;6.686;2023-05-12T00:12:24;100989.06;;;14.11;100.00
13068;BME280;6600;51.362;6.686;2023-05-12T00:14:50;100986.34;;;14.11;100.00
13068;BME280;6600;51.362;6.686;2023-05-12T00:17:15;100974.28;;;14.02;100.00
13068;BME280;6600;51.362;6.686;2023-05-12T00:19:41;100982.47;;;14.07;100.00
13068;BME280;6600;51.362;6.686;2023-05-12T00:22:08;100979.56;;;14.08;100.00
13068;BME280;6600;51.362;6.686;2023-05-12T00:24:34;100973.47;;;14.01;100.00
13068;BME280;6600;51.362;6.686;2023-05-12T00:27:00;100972.41;;;14.02;100.00
13068;BME280;6600;51.362;6.686;2023-05-12T00:29:25;100974.03;;;13.92;100.00
13068;BME280;6600;51.362;6.686;2023-05-12T00:31:50;100967.00;;;13.91;100.00
13068;BME280;6600;51.362;6.686;2023-05-12T00:34:16;100960.56;;;13.92;100.00
13068;BME280;6600;51.362;6.686;2023-05-12T00:36:41;100956.22;;;13.91;100.00
13068;BME280;6600;51.362;6.686;2023-05-12T00:39:06;100956.22;;;13.91;100.00
13068;BME280;6600;51.362;6.686;2023-05-12T00:41:32;100962.06;;;13.88;100.00
13068;BME280;6600;51.362;6.686;2023-05-12T00:43:57;100955.41;;;13.90;100.00
13068;BME280;6600;51.362;6.686;2023-05-12T00:46:23;100951.88;;;13.90;100.00
13068;BME280;6600;51.362;6.686;2023-05-12T00:48:49;100951.09;;;13.89;100.00
13068;BME280;6600;51.362;6.686;2023-05-12T00:51:15;100949.78;;;13.92;100.00
13068;BME280;6600;51.362;6.686;2023-05-12T00:53:41;100954.25;;;13.98;100.00
13068;BME280;6600;51.362;6.686;2023-05-12T00:56:08;100943.31;;;13.93;100.00
13068;BME280;6600;51.362;6.686;2023-05-12T00:58:33;100933.72;;;13.97;100.00
13068;BME280;6600;51.362;6.686;2023-05-12T01:00:59;100939.59;;;13.94;100.00
13068;BME280;6600;51.362;6.686;2023-05-12T01:03:24;100937.50;;;13.96;100.00
13068;BME280;6600;51.362;6.686;2023-05-12T01:08:30;100928.81;;;13.94;100.00
13068;BME280;6600;51.362;6.686;2023-05-12T01:10:55;100926.00;;;13.89;100.00
13068;BME280;6600;51.362;6.686;2023-05-12T01:13:21;100919.91;;;13.82;100.00
13068;BME280;6600;51.362;6.686;2023-05-12T01:15:46;100916.06;;;13.89;100.00
13068;BME280;6600;51.362;6.686;2023-05-12T01:18:14;100921.66;;;13.88;100.00
13068;BME280;6600;51.362;6.686;2023-05-12T01:20:41;100914.78;;;13.92;100.00
13068;BME280;6600;51.362;6.686;2023-05-12T01:23:08;100916.28;;;13.88;100.00
13068;BME280;6600;51.362;6.686;2023-05-12T01:25:34;100914.06;;;13.85;100.00
13068;BME280;6600;51.362;6.686;2023-05-12T01:28:02;100917.31;;;13.87;100.00
13068;BME280;6600;51.362;6.686;2023-05-12T01:30:28;100914.06;;;13.85;100.00
13068;BME280;6600;51.362;6.686;2023-05-12T01:32:54;100909.50;;;13.85;100.00
13068;BME280;6600;51.362;6.686;2023-05-12T01:35:19;100907.50;;;13.81;100.00
13068;BME280;6600;51.362;6.686;2023-05-12T01:37:44;100905.38;;;13.83;100.00
13068;BME280;6600;51.362;6.686;2023-05-12T01:40:10;100899.41;;;13.81;100.00
13068;BME280;6600;51.362;6.686;2023-05-12T01:42:38;100891.78;;;13.78;100.00
13068;BME280;6600;51.362;6.686;2023-05-12T01:45:04;100881.59;;;13.80;100.00
13068;BME280;6600;51.362;6.686;2023-05-12T01:47:29;100890.59;;;13.74;100.00
13068;BME280;6600;51.362;6.686;2023-05-12T01:49:55;100889.09;;;13.78;100.00
13068;BME280;6600;51.362;6.686;2023-05-12T01:52:21;100889.69;;;13.80;100.00
13068;BME280;6600;51.362;6.686;2023-05-12T01:54:46;100888.63;;;13.81;100.00
13068;BME280;6600;51.362;6.686;2023-05-12T01:57:11;100890.16;;;13.77;100.00
13068;BME280;6600;51.362;6.686;2023-05-12T01:59:37;100884.28;;;13.80;100.00
13068;BME280;6600;51.362;6.686;2023-05-12T02:02:02;100889.44;;;13.93;100.00
13068;BME280;6600;51.362;6.686;2023-05-12T02:04:28;100884.66;;;13.95;100.00
13068;BME280;6600;51.362;6.686;2023-05-12T02:06:53;100892.41;;;14.03;100.00
13068;BME280;6600;51.362;6.686;2023-05-12T02:09:18;100880.09;;;14.07;100.00
13068;BME280;6600;51.362;6.686;2023-05-12T02:11:44;100895.34;;;14.13;100.00
13068;BME280;6600;51.362;6.686;2023-05-12T02:14:09;100897.09;;;14.19;100.00
13068;BME280;6600;51.362;6.686;2023-05-12T02:16:34;100895.22;;;14.20;100.00
13068;BME280;6600;51.362;6.686;2023-05-12T02:19:00;100890.19;;;14.23;100.00
13068;BME280;6600;51.362;6.686;2023-05-12T02:21:25;100896.97;;;14.26;100.00
13068;BME280;6600;51.362;6.686;2023-05-12T02:23:52;100895.44;;;14.30;100.00
13068;BME280;6600;51.362;6.686;2023-05-12T02:26:17;100885.88;;;14.34;100.00
13068;BME280;6600;51.362;6.686;2023-05-12T02:28:43;100891.63;;;14.37;100.00
13068;BME280;6600;51.362;6.686;2023-05-12T02:31:08;100892.53;;;14.43;100.00
13068;BME280;6600;51.362;6.686;2023-05-12T02:33:34;100891.84;;;14.47;100.00
13068;BME280;6600;51.362;6.686;2023-05-12T02:35:59;100889.63;;;14.44;100.00
13068;BME280;6600;51.362;6.686;2023-05-12T02:38:24;100886.91;;;14.44;100.00
13068;BME280;6600;51.362;6.686;2023-05-12T02:40:50;100903.53;;;14.41;100.00
13068;BME280;6600;51.362;6.686;2023-05-12T02:43:15;100899.94;;;14.36;100.00
13068;BME280;6600;51.362;6.686;2023-05-12T02:45:41;100903.44;;;14.36;100.00
13068;BME280;6600;51.362;6.686;2023-05-12T02:48:06;100907.78;;;14.37;100.00
13068;BME280;6600;51.362;6.686;2023-05-12T02:50:31;100908.69;;;14.31;100.00
13068;BME280;6600;51.362;6.686;2023-05-12T02:52:57;100908.56;;;14.26;100.00
13068;BME280;6600;51.362;6.686;2023-05-12T02:55:22;100914.66;;;14.22;100.00
13068;BME280;6600;51.362;6.686;2023-05-12T02:57:47;100912.78;;;14.22;100.00
13068;BME280;6600;51.362;6.686;2023-05-12T03:00:13;100914.19;;;14.25;100.00
13068;BME280;6600;51.362;6.686;2023-05-12T03:02:39;100914.78;;;14.15;100.00
13068;BME280;6600;51.362;6.686;2023-05-12T03:05:05;100920.16;;;14.15;100.00
13068;BME280;6600;51.362;6.686;2023-05-12T03:07:30;100917.69;;;14.13;100.00
13068;BME280;6600;51.362;6.686;2023-05-12T03:09:56;100918.28;;;14.04;100.00
13068;BME280;6600;51.362;6.686;2023-05-12T03:12:22;100925.31;;;14.05;100.00
13068;BME280;6600;51.362;6.686;2023-05-12T03:14:47;100927.09;;;13.99;100.00
13068;BME280;6600;51.362;6.686;2023-05-12T03:17:13;100928.34;;;13.97;100.00
13068;BME280;6600;51.362;6.686;2023-05-12T03:19:38;100933.03;;;13.90;100.00
13068;BME280;6600;51.362;6.686;2023-05-12T03:22:04;100937.63;;;13.89;100.00
13068;BME280;6600;51.362;6.686;2023-05-12T03:24:31;100931.88;;;13.86;100.00
13068;BME280;6600;51.362;6.686;2023-05-12T03:26:57;100937.25;;;13.86;100.00
13068;BME280;6600;51.362;6.686;2023-05-12T03:29:23;100936.66;;;13.84;100.00
13068;BME280;6600;51.362;6.686;2023-05-12T03:31:48;100931.94;;;13.79;100.00
13068;BME280;6600;51.362;6.686;2023-05-12T03:34:14;100938.16;;;13.80;100.00
13068;BME280;6600;51.362;6.686;2023-05-12T03:36:39;100942.72;;;13.79;100.00
13068;BME280;6600;51.362;6.686;2023-05-12T03:39:05;100933.84;;;13.79;100.00
13068;BME280;6600;51.362;6.686;2023-05-12T03:41:33;100938.63;;;13.77;100.00
13068;BME280;6600;51.362;6.686;2023-05-12T03:43:58;100937.31;;;13.79;100.00
13068;BME280;6600;51.362;6.686;2023-05-12T03:46:24;100941.00;;;13.85;100.00
13068;BME280;6600;51.362;6.686;2023-05-12T03:48:49;100940.16;;;13.84;100.00
13068;BME280;6600;51.362;6.686;2023-05-12T03:51:15;100935.13;;;13.88;100.00
13068;BME280;6600;51.362;6.686;2023-05-12T03:53:40;100947.56;;;13.89;100.00
13068;BME280;6600;51.362;6.686;2023-05-12T03:56:09;100945.91;;;13.88;100.00
13068;BME280;6600;51.362;6.686;2023-05-12T03:58:35;100956.44;;;13.78;100.00
13068;BME280;6600;51.362;6.686;2023-05-12T04:01:00;100960.25;;;13.70;100.00
13068;BME280;6600;51.362;6.686;2023-05-12T04:03:29;100955.25;;;13.74;100.00
13068;BME280;6600;51.362;6.686;2023-05-12T04:06:01;100970.94;;;13.77;100.00
13068;BME280;6600;51.362;6.686;2023-05-12T04:08:27;100968.13;;;13.72;100.00
13068;BME280;6600;51.362;6.686;2023-05-12T04:10:57;100966.00;;;13.74;100.00
13068;BME280;6600;51.362;6.686;2023-05-12T04:13:23;100969.75;;;13.73;100.00
13068;BME280;6600;51.362;6.686;2023-05-12T04:15:49;100973.53;;;13.72;100.00
13068;BME280;6600;51.362;6.686;2023-05-12T04:18:15;100976.78;;;13.74;100.00
13068;BME280;6600;51.362;6.686;2023-05-12T04:20:41;100978.44;;;13.75;100.00
13068;BME280;6600;51.362;6.686;2023-05-12T04:23:06;100985.34;;;13.71;100.00
13068;BME280;6600;51.362;6.686;2023-05-12T04:25:32;100987.09;;;13.77;100.00
13068;BME280;6600;51.362;6.686;2023-05-12T04:27:57;100982.91;;;13.81;100.00
13068;BME280;6600;51.362;6.686;2023-05-12T04:30:23;100994.13;;;13.78;100.00
13068;BME280;6600;51.362;6.686;2023-05-12T04:32:48;100991.56;;;13.83;100.00
13068;BME280;6600;51.362;6.686;2023-05-12T04:35:14;100996.06;;;13.89;100.00
13068;BME280;6600;51.362;6.686;2023-05-12T04:37:39;100999.78;;;13.88;100.00
13068;BME280;6600;51.362;6.686;2023-05-12T04:40:07;100997.19;;;13.93;100.00
13068;BME280;6600;51.362;6.686;2023-05-12T04:42:33;100998.75;;;13.89;100.00
13068;BME280;6600;51.362;6.686;2023-05-12T04:44:59;101005.91;;;13.95;100.00
13068;BME280;6600;51.362;6.686;2023-05-12T04:47:24;101010.81;;;13.98;100.00
13068;BME280;6600;51.362;6.686;2023-05-12T04:49:50;101012.09;;;13.95;100.00
13068;BME280;6600;51.362;6.686;2023-05-12T04:52:15;101020.09;;;14.02;100.00
13068;BME280;6600;51.362;6.686;2023-05-12T04:54:40;101018.59;;;14.06;100.00
13068;BME280;6600;51.362;6.686;2023-05-12T04:57:06;101027.03;;;14.09;100.00
13068;BME280;6600;51.362;6.686;2023-05-12T04:59:31;101027.59;;;14.11;100.00
13068;BME280;6600;51.362;6.686;2023-05-12T05:01:56;101036.63;;;14.17;100.00
13068;BME280;6600;51.362;6.686;2023-05-12T05:04:22;101041.31;;;14.10;100.00
13068;BME280;6600;51.362;6.686;2023-05-12T05:06:47;101040.50;;;14.09;100.00
13068;BME280;6600;51.362;6.686;2023-05-12T05:09:12;101044.59;;;14.12;100.00
13068;BME280;6600;51.362;6.686;2023-05-12T05:11:38;101049.41;;;14.10;100.00
13068;BME280;6600;51.362;6.686;2023-05-12T05:14:03;101055.38;;;14.12;100.00
13068;BME280;6600;51.362;6.686;2023-05-12T05:16:28;101059.25;;;14.16;100.00
13068;BME280;6600;51.362;6.686;2023-05-12T05:18:54;101059.38;;;14.21;100.00
13068;BME280;6600;51.362;6.686;2023-05-12T05:21:19;101070.50;;;14.25;100.00
13068;BME280;6600;51.362;6.686;2023-05-12T05:23:45;101064.66;;;14.28;100.00
13068;BME280;6600;51.362;6.686;2023-05-12T05:26:10;101076.25;;;14.28;100.00
13068;BME280;6600;51.362;6.686;2023-05-12T05:28:36;101080.47;;;14.24;100.00
13068;BME280;6600;51.362;6.686;2023-05-12T05:31:04;101078.28;;;14.33;100.00
13068;BME280;6600;51.362;6.686;2023-05-12T05:33:29;101086.75;;;14.36;100.00
13068;BME280;6600;51.362;6.686;2023-05-12T05:35:55;101089.13;;;14.44;100.00
13068;BME280;6600;51.362;6.686;2023-05-12T05:38:20;101100.50;;;14.46;100.00
13068;BME280;6600;51.362;6.686;2023-05-12T05:40:46;101093.44;;;14.45;100.00
13068;BME280;6600;51.362;6.686;2023-05-12T05:43:11;101095.56;;;14.43;100.00
13068;BME280;6600;51.362;6.686;2023-05-12T05:45:36;101096.84;;;14.41;100.00
13068;BME280;6600;51.362;6.686;2023-05-12T05:48:02;101098.84;;;14.45;100.00
13068;BME280;6600;51.362;6.686;2023-05-12T05:50:27;101108.59;;;14.46;100.00
13068;BME280;6600;51.362;6.686;2023-05-12T05:52:52;101114.91;;;14.52;100.00
13068;BME280;6600;51.362;6.686;2023-05-12T05:55:19;101116.56;;;14.53;100.00
13068;BME280;6600;51.362;6.686;2023-05-12T05:57:45;101119.50;;;14.51;100.00
13068;BME280;6600;51.362;6.686;2023-05-12T06:00:11;101111.28;;;14.46;100.00
13068;BME280;6600;51.362;6.686;2023-05-12T06:02:38;101120.78;;;14.49;100.00
13068;BME280;6600;51.362;6.686;2023-05-12T06:05:04;101125.69;;;14.52;100.00
13068;BME280;6600;51.362;6.686;2023-05-12T06:07:30;101130.28;;;14.51;100.00
13068;BME280;6600;51.362;6.686;2023-05-12T06:09:56;101129.38;;;14.57;100.00
13068;BME280;6600;51.362;6.686;2023-05-12T06:12:21;101132.06;;;14.57;100.00
13068;BME280;6600;51.362;6.686;2023-05-12T06:14:46;101139.22;;;14.63;100.00
13068;BME280;6600;51.362;6.686;2023-05-12T06:17:12;101130.97;;;14.58;100.00
13068;BME280;6600;51.362;6.686;2023-05-12T06:19:38;101139.34;;;14.69;100.00
13068;BME280;6600;51.362;6.686;2023-05-12T06:22:03;101149.53;;;14.66;100.00
13068;BME280;6600;51.362;6.686;2023-05-12T06:24:29;101140.63;;;14.54;100.00
13068;BME280;6600;51.362;6.686;2023-05-12T06:26:54;101141.13;;;14.75;100.00
13068;BME280;6600;51.362;6.686;2023-05-12T06:29:20;101140.66;;;14.78;100.00
13068;BME280;6600;51.362;6.686;2023-05-12T06:31:46;101145.81;;;14.91;100.00
13068;BME280;6600;51.362;6.686;2023-05-12T06:34:12;101142.66;;;14.94;100.00
13068;BME280;6600;51.362;6.686;2023-05-12T06:36:37;101144.53;;;14.93;100.00
13068;BME280;6600;51.362;6.686;2023-05-12T06:39:03;101154.75;;;15.03;100.00
13068;BME280;6600;51.362;6.686;2023-05-12T06:41:29;101153.94;;;15.02;100.00
13068;BME280;6600;51.362;6.686;2023-05-12T06:43:54;101153.81;;;15.09;100.00
13068;BME280;6600;51.362;6.686;2023-05-12T06:46:20;101153.59;;;14.99;100.00
13068;BME280;6600;51.362;6.686;2023-05-12T06:48:45;101162.25;;;15.01;100.00
13068;BME280;6600;51.362;6.686;2023-05-12T06:51:11;101153.94;;;15.02;100.00
13068;BME280;6600;51.362;6.686;2023-05-12T06:53:37;101158.84;;;15.17;100.00
13068;BME280;6600;51.362;6.686;2023-05-12T06:56:05;101154.16;;;15.24;100.00
13068;BME280;6600;51.362;6.686;2023-05-12T06:58:31;101168.59;;;15.18;100.00
13068;BME280;6600;51.362;6.686;2023-05-12T07:00:56;101177.06;;;15.10;100.00
13068;BME280;6600;51.362;6.686;2023-05-12T07:03:22;101168.94;;;15.22;100.00
13068;BME280;6600;51.362;6.686;2023-05-12T07:05:47;101180.44;;;15.29;100.00
13068;BME280;6600;51.362;6.686;2023-05-12T07:08:12;101182.56;;;15.27;100.00
13068;BME280;6600;51.362;6.686;2023-05-12T07:10:38;101179.16;;;15.31;100.00
13068;BME280;6600;51.362;6.686;2023-05-12T07:13:04;101188.34;;;15.30;100.00
13068;BME280;6600;51.362;6.686;2023-05-12T07:15:29;101181.50;;;15.28;100.00
13068;BME280;6600;51.362;6.686;2023-05-12T07:17:55;101184.56;;;15.31;100.00
13068;BME280;6600;51.362;6.686;2023-05-12T07:20:21;101187.03;;;15.33;100.00
13068;BME280;6600;51.362;6.686;2023-05-12T07:22:46;101179.88;;;15.27;100.00
13068;BME280;6600;51.362;6.686;2023-05-12T07:25:12;101181.28;;;15.29;100.00
13068;BME280;6600;51.362;6.686;2023-05-12T07:27:37;101184.91;;;15.35;100.00
13068;BME280;6600;51.362;6.686;2023-05-12T07:30:06;101190.66;;;15.38;100.00
13068;BME280;6600;51.362;6.686;2023-05-12T07:32:32;101186.44;;;15.42;100.00
13068;BME280;6600;51.362;6.686;2023-05-12T07:34:58;101190.47;;;15.51;100.00
13068;BME280;6600;51.362;6.686;2023-05-12T07:37:23;101190.78;;;15.43;100.00
13068;BME280;6600;51.362;6.686;2023-05-12T07:39:48;101193.22;;;15.45;100.00
13068;BME280;6600;51.362;6.686;2023-05-12T07:42:14;101201.28;;;15.51;100.00
13068;BME280;6600;51.362;6.686;2023-05-12T07:44:39;101199.63;;;15.50;100.00
13068;BME280;6600;51.362;6.686;2023-05-12T07:47:05;101206.06;;;15.49;100.00
13068;BME280;6600;51.362;6.686;2023-05-12T07:49:31;101202.41;;;15.55;100.00
13068;BME280;6600;51.362;6.686;2023-05-12T07:51:56;101206.78;;;15.56;100.00
13068;BME280;6600;51.362;6.686;2023-05-12T07:54:22;101204.56;;;15.53;100.00
13068;BME280;6600;51.362;6.686;2023-05-12T07:56:47;101211.59;;;15.54;100.00
13068;BME280;6600;51.362;6.686;2023-05-12T07:59:12;101211.81;;;15.53;100.00
13068;BME280;6600;51.362;6.686;2023-05-12T08:01:38;101215.34;;;15.53;100.00
13068;BME280;6600;51.362;6.686;2023-05-12T08:04:04;101212.53;;;15.60;100.00
13068;BME280;6600;51.362;6.686;2023-05-12T08:06:30;101208.66;;;15.68;100.00
13068;BME280;6600;51.362;6.686;2023-05-12T08:08:56;101224.03;;;15.79;100.00
13068;BME280;6600;51.362;6.686;2023-05-12T08:11:23;101217.09;;;15.71;100.00
13068;BME280;6600;51.362;6.686;2023-05-12T08:13:48;101216.97;;;15.78;100.00
13068;BME280;6600;51.362;6.686;2023-05-12T08:16:13;101225.66;;;15.80;100.00
13068;BME280;6600;51.362;6.686;2023-05-12T08:18:39;101211.31;;;15.91;100.00
13068;BME280;6600;51.362;6.686;2023-05-12T08:21:04;101216.22;;;15.94;100.00
13068;BME280;6600;51.362;6.686;2023-05-12T08:23:30;101221.63;;;15.94;99.90
13068;BME280;6600;51.362;6.686;2023-05-12T08:25:55;101219.47;;;16.07;100.00
13068;BME280;6600;51.362;6.686;2023-05-12T08:28:20;101220.91;;;16.10;99.39
13068;BME280;6600;51.362;6.686;2023-05-12T08:30:46;101227.94;;;16.11;97.79
13068;BME280;6600;51.362;6.686;2023-05-12T08:33:11;101226.88;;;16.12;98.53
13068;BME280;6600;51.362;6.686;2023-05-12T08:35:37;101230.41;;;16.12;97.38
13068;BME280;6600;51.362;6.686;2023-05-12T08:38:02;101226.03;;;16.23;95.97
13068;BME280;6600;51.362;6.686;2023-05-12T08:40:29;101233.88;;;16.25;94.95
13068;BME280;6600;51.362;6.686;2023-05-12T08:43:08;101233.38;;;16.39;95.30
13068;BME280;6600;51.362;6.686;2023-05-12T08:45:38;101232.50;;;16.50;95.40
13068;BME280;6600;51.362;6.686;2023-05-12T08:48:07;101242.50;;;16.61;95.53
13068;BME280;6600;51.362;6.686;2023-05-12T08:50:35;101248.31;;;16.70;94.45
13068;BME280;6600;51.362;6.686;2023-05-12T08:53:02;101253.19;;;16.85;95.21
13068;BME280;6600;51.362;6.686;2023-05-12T08:55:28;101254.19;;;16.79;93.69
13068;BME280;6600;51.362;6.686;2023-05-12T08:57:55;101250.31;;;16.75;92.73
13068;BME280;6600;51.362;6.686;2023-05-12T09:00:22;101260.66;;;16.78;92.28
13068;BME280;6600;51.362;6.686;2023-05-12T09:02:50;101259.19;;;16.87;93.00
13068;BME280;6600;51.362;6.686;2023-05-12T09:05:17;101259.28;;;16.92;92.11
13068;BME280;6600;51.362;6.686;2023-05-12T09:07:42;101261.00;;;16.98;93.22
13068;BME280;6600;51.362;6.686;2023-05-12T09:10:15;101270.84;;;17.04;91.82
13068;BME280;6600;51.362;6.686;2023-05-12T09:12:45;101268.75;;;17.06;90.88
13068;BME280;6600;51.362;6.686;2023-05-12T09:15:14;101270.06;;;17.20;90.73
13068;BME280;6600;51.362;6.686;2023-05-12T09:17:42;101260.94;;;17.43;91.58
13068;BME280;6600;51.362;6.686;2023-05-12T09:20:07;101271.78;;;17.43;89.12
13068;BME280;6600;51.362;6.686;2023-05-12T09:22:34;101263.09;;;17.57;88.75
13068;BME280;6600;51.362;6.686;2023-05-12T09:25:00;101276.97;;;17.61;89.27
13068;BME280;6600;51.362;6.686;2023-05-12T09:27:26;101259.78;;;17.55;87.47
13068;BME280;6600;51.362;6.686;2023-05-12T09:29:52;101264.44;;;17.77;88.61
13068;BME280;6600;51.362;6.686;2023-05-12T09:32:17;101270.84;;;17.87;88.13
13068;BME280;6600;51.362;6.686;2023-05-12T09:34:53;101270.50;;;17.84;88.95
13068;BME280;6600;51.362;6.686;2023-05-12T09:37:18;101265.38;;;18.04;88.54
13068;BME280;6600;51.362;6.686;2023-05-12T09:39:44;101275.72;;;18.07;88.25
13068;BME280;6600;51.362;6.686;2023-05-12T09:42:10;101283.78;;;18.02;85.46
13068;BME280;6600;51.362;6.686;2023-05-12T09:44:37;101276.53;;;18.07;86.25
13068;BME280;6600;51.362;6.686;2023-05-12T09:47:06;101273.84;;;18.29;88.00
13068;BME280;6600;51.362;6.686;2023-05-12T09:49:32;101278.34;;;18.45;87.08
13068;BME280;6600;51.362;6.686;2023-05-12T09:51:58;101277.06;;;18.48;85.77
13068;BME280;6600;51.362;6.686;2023-05-12T09:54:27;101284.38;;;18.47;85.34
13068;BME280;6600;51.362;6.686;2023-05-12T09:56:57;101279.94;;;18.63;84.50
13068;BME280;6600;51.362;6.686;2023-05-12T09:59:24;101272.69;;;18.69;84.71
13068;BME280;6600;51.362;6.686;2023-05-12T10:02:00;101285.66;;;18.88;86.56
13068;BME280;6600;51.362;6.686;2023-05-12T10:04:27;101284.38;;;18.96;85.63
13068;BME280;6600;51.362;6.686;2023-05-12T10:06:54;101285.00;;;19.03;84.43
13068;BME280;6600;51.362;6.686;2023-05-12T10:09:27;101282.13;;;18.88;83.17
13068;BME280;6600;51.362;6.686;2023-05-12T10:11:57;101281.69;;;19.01;84.32
13068;BME280;6600;51.362;6.686;2023-05-12T10:14:23;101270.47;;;19.19;86.35
13068;BME280;6600;51.362;6.686;2023-05-12T10:16:49;101283.13;;;19.08;82.76
13068;BME280;6600;51.362;6.686;2023-05-12T10:19:16;101288.19;;;19.00;82.52
13068;BME280;6600;51.362;6.686;2023-05-12T10:21:43;101283.78;;;18.89;82.65
13068;BME280;6600;51.362;6.686;2023-05-12T10:24:14;101287.03;;;18.91;82.94
13068;BME280;6600;51.362;6.686;2023-05-12T10:26:41;101292.66;;;18.84;83.29
13068;BME280;6600;51.362;6.686;2023-05-12T10:29:07;101282.22;;;18.98;83.49
13068;BME280;6600;51.362;6.686;2023-05-12T10:31:35;101290.38;;;18.98;82.74
13068;BME280;6600;51.362;6.686;2023-05-12T10:34:01;101287.13;;;19.01;84.27
13068;BME280;6600;51.362;6.686;2023-05-12T10:36:28;101290.31;;;19.20;83.08
13068;BME280;6600;51.362;6.686;2023-05-12T10:38:54;101292.44;;;19.17;81.10
13068;BME280;6600;51.362;6.686;2023-05-12T10:41:31;101279.81;;;19.33;81.64
13068;BME280;6600;51.362;6.686;2023-05-12T10:43:56;101282.47;;;19.28;80.38
13068;BME280;6600;51.362;6.686;2023-05-12T10:46:22;101282.47;;;19.28;80.27
13068;BME280;6600;51.362;6.686;2023-05-12T10:48:58;101282.78;;;19.32;79.26
13068;BME280;6600;51.362;6.686;2023-05-12T10:51:26;101284.38;;;19.59;80.67
13068;BME280;6600;51.362;6.686;2023-05-12T10:53:55;101279.66;;;19.87;80.37
13068;BME280;6600;51.362;6.686;2023-05-12T10:56:23;101271.66;;;20.12;80.52
13068;BME280;6600;51.362;6.686;2023-05-12T11:01:30;101268.44;;;20.20;76.69
13068;BME280;6600;51.362;6.686;2023-05-12T11:04:07;101274.50;;;19.90;78.03
13068;BME280;6600;51.362;6.686;2023-05-12T11:06:33;101272.13;;;20.04;76.11
13068;BME280;6600;51.362;6.686;2023-05-12T11:08:58;101271.25;;;19.88;76.77
13068;BME280;6600;51.362;6.686;2023-05-12T11:11:24;101277.63;;;20.09;76.66
13068;BME280;6600;51.362;6.686;2023-05-12T11:13:50;101281.91;;;19.95;75.85
13068;BME280;6600;51.362;6.686;2023-05-12T11:16:15;101282.31;;;19.72;75.18
13068;BME280;6600;51.362;6.686;2023-05-12T11:18:41;101270.97;;;19.85;75.06
13068;BME280;6600;51.362;6.686;2023-05-12T11:21:10;101282.13;;;19.88;76.74
13068;BME280;6600;51.362;6.686;2023-05-12T11:23:38;101279.97;;;19.90;74.97
13068;BME280;6600;51.362;6.686;2023-05-12T11:26:04;101285.75;;;20.04;76.62
13068;BME280;6600;51.362;6.686;2023-05-12T11:28:40;101282.47;;;20.02;75.02
13068;BME280;6600;51.362;6.686;2023-05-12T11:31:05;101286.75;;;19.88;72.98
13068;BME280;6600;51.362;6.686;2023-05-12T11:33:31;101291.13;;;19.94;74.82
13068;BME280;6600;51.362;6.686;2023-05-12T11:35:56;101282.66;;;19.85;73.00
13068;BME280;6600;51.362;6.686;2023-05-12T11:38:22;101289.00;;;20.01;74.04
13068;BME280;6600;51.362;6.686;2023-05-12T11:40:48;101285.50;;;20.10;74.47
13068;BME280;6600;51.362;6.686;2023-05-12T11:43:19;101290.28;;;20.30;73.74
13068;BME280;6600;51.362;6.686;2023-05-12T11:45:44;101298.38;;;20.25;72.16
13068;BME280;6600;51.362;6.686;2023-05-12T11:48:13;101285.25;;;20.17;73.38
13068;BME280;6600;51.362;6.686;2023-05-12T11:50:41;101289.53;;;19.98;71.82
13068;BME280;6600;51.362;6.686;2023-05-12T11:53:10;101296.25;;;20.27;72.60
13068;BME280;6600;51.362;6.686;2023-05-12T11:55:54;101281.81;;;20.32;72.54
13068;BME280;6600;51.362;6.686;2023-05-12T11:58:24;101291.81;;;20.21;71.25
13068;BME280;6600;51.362;6.686;2023-05-12T12:00:55;101300.66;;;20.43;72.01
13068;BME280;6600;51.362;6.686;2023-05-12T12:03:22;101291.41;;;20.49;73.60
13068;BME280;6600;51.362;6.686;2023-05-12T12:05:59;101301.19;;;20.40;75.25
13068;BME280;6600;51.362;6.686;2023-05-12T12:08:25;101304.44;;;20.37;75.28
13068;BME280;6600;51.362;6.686;2023-05-12T12:10:50;101302.53;;;20.38;76.45
13068;BME280;6600;51.362;6.686;2023-05-12T12:13:20;101306.16;;;20.63;75.96
13068;BME280;6600;51.362;6.686;2023-05-12T12:15:46;101308.53;;;20.45;76.06
13068;BME280;6600;51.362;6.686;2023-05-12T12:18:12;101306.72;;;20.60;75.58
13068;BME280;6600;51.362;6.686;2023-05-12T12:20:37;101305.53;;;20.36;75.37
13068;BME280;6600;51.362;6.686;2023-05-12T12:23:03;101313.13;;;20.29;74.63
13068;BME280;6600;51.362;6.686;2023-05-12T12:25:28;101306.66;;;20.40;73.65
13068;BME280;6600;51.362;6.686;2023-05-12T12:27:53;101316.47;;;20.51;74.00
13068;BME280;6600;51.362;6.686;2023-05-12T12:30:19;101310.25;;;20.66;75.53
13068;BME280;6600;51.362;6.686;2023-05-12T12:32:44;101302.75;;;20.26;75.08
13068;BME280;6600;51.362;6.686;2023-05-12T12:35:10;101313.47;;;20.48;74.83
13068;BME280;6600;51.362;6.686;2023-05-12T12:37:37;101311.06;;;20.61;75.61
13068;BME280;6600;51.362;6.686;2023-05-12T12:40:03;101315.38;;;20.52;74.53
13068;BME280;6600;51.362;6.686;2023-05-12T12:42:33;101310.91;;;20.26;74.81
13068;BME280;6600;51.362;6.686;2023-05-12T12:44:59;101317.41;;;20.25;76.54
13068;BME280;6600;51.362;6.686;2023-05-12T12:47:25;101318.50;;;20.24;75.19
13068;BME280;6600;51.362;6.686;2023-05-12T12:49:50;101318.44;;;20.14;76.63
13068;BME280;6600;51.362;6.686;2023-05-12T12:52:15;101318.38;;;19.99;74.96